createdAt,value
2023-02-12T00:01:29.250Z,102299.80
2023-02-12T00:04:06.199Z,102295.40
2023-02-12T00:06:43.423Z,102297.20
2023-02-12T00:09:19.904Z,102299.00
2023-02-12T00:11:58.399Z,102293.60
2023-02-12T00:14:35.358Z,102294.60
2023-02-12T00:17:12.075Z,102299.80
2023-02-12T00:19:48.941Z,102298.00
2023-02-12T00:22:25.874Z,102294.00
2023-02-12T00:25:02.540Z,102303.80
2023-02-12T00:27:43.553Z,102304.80
2023-02-12T00:30:23.152Z,102301.00
2023-02-12T00:33:00.172Z,102299.00
2023-02-12T00:35:36.501Z,102298.80
2023-02-12T00:38:13.094Z,102297.80
2023-02-12T00:40:49.818Z,102295.40
2023-02-12T00:43:27.410Z,102294.20
2023-02-12T00:46:04.090Z,102298.80
2023-02-12T00:48:40.626Z,102300.80
2023-02-12T00:51:16.980Z,102298.20
2023-02-12T00:53:55.020Z,102290.20
2023-02-12T00:56:32.148Z,102300.00
2023-02-12T00:59:09.501Z,102299.40
2023-02-12T01:01:46.643Z,102297.60
2023-02-12T01:04:24.565Z,102301.40
2023-02-12T01:07:01.405Z,102303.40
2023-02-12T01:09:37.877Z,102302.60
2023-02-12T01:12:17.110Z,102297.00
2023-02-12T01:14:53.806Z,102298.00
2023-02-12T01:17:29.930Z,102294.20
2023-02-12T01:20:08.320Z,102289.40
2023-02-12T01:22:44.775Z,102288.40
2023-02-12T01:25:22.567Z,102284.20
2023-02-12T01:28:00.547Z,102274.80
2023-02-12T01:30:36.831Z,102277.60
2023-02-12T01:33:14.401Z,102273.00
2023-02-12T01:35:51.844Z,102271.60
2023-02-12T01:38:28.802Z,102264.80
2023-02-12T01:41:13.479Z,102259.00
2023-02-12T01:44:02.845Z,102259.20
2023-02-12T01:46:42.000Z,102257.00
2023-02-12T01:49:25.002Z,102252.80
2023-02-12T01:52:11.947Z,102250.00
2023-02-12T01:54:49.782Z,102247.40
2023-02-12T01:57:27.604Z,102247.40
2023-02-12T02:00:09.406Z,102250.40
2023-02-12T02:02:54.698Z,102243.60
2023-02-12T02:05:38.679Z,102248.00
2023-02-12T02:08:17.843Z,102253.40
2023-02-12T02:10:56.093Z,102252.00
2023-02-12T02:13:49.866Z,102252.40
2023-02-12T02:16:33.717Z,102255.60
2023-02-12T02:19:32.204Z,102253.40
2023-02-12T02:22:34.186Z,102245.20
2023-02-12T02:25:49.613Z,102241.20
2023-02-12T02:29:01.133Z,102232.60
2023-02-12T02:31:47.059Z,102228.80
2023-02-12T02:34:32.697Z,102229.40
2023-02-12T02:37:21.579Z,102223.60
2023-02-12T02:40:06.312Z,102228.40
2023-02-12T02:42:51.463Z,102226.00
2023-02-12T02:45:37.883Z,102216.80
2023-02-12T02:48:21.237Z,102214.60
2023-02-12T02:51:05.602Z,102212.80
2023-02-12T02:53:50.743Z,102209.00
2023-02-12T02:56:32.555Z,102207.20
2023-02-12T02:59:15.749Z,102205.60
2023-02-12T03:01:59.524Z,102206.60
2023-02-12T03:04:44.220Z,102205.40
2023-02-12T03:07:29.593Z,102208.00
2023-02-12T03:13:02.821Z,102207.60
2023-02-12T03:15:46.295Z,102204.60
2023-02-12T03:18:32.144Z,102197.00
2023-02-12T03:21:17.906Z,102202.40
2023-02-12T03:24:00.148Z,102201.60
2023-02-12T03:26:49.054Z,102188.00
2023-02-12T03:29:26.663Z,102183.00
2023-02-12T03:32:24.525Z,102190.60
2023-02-12T03:35:18.093Z,102189.00
2023-02-12T03:38:05.984Z,102192.80
2023-02-12T03:40:51.433Z,102186.40
2023-02-12T03:43:36.144Z,102180.00
2023-02-12T03:46:26.402Z,102177.80
2023-02-12T03:49:12.847Z,102181.20
2023-02-12T03:51:51.885Z,102186.00
2023-02-12T03:54:30.069Z,102190.60
2023-02-12T03:57:14.888Z,102196.60
2023-02-12T03:59:53.674Z,102203.60
2023-02-12T04:02:31.121Z,102209.60
2023-02-12T04:05:19.244Z,102208.40
2023-02-12T04:07:56.860Z,102208.80
2023-02-12T04:10:41.728Z,102204.60
2023-02-12T04:13:31.690Z,102203.80
2023-02-12T04:16:26.167Z,102206.40
2023-02-12T04:19:04.615Z,102204.60
2023-02-12T04:21:53.738Z,102199.80
2023-02-12T04:24:47.879Z,102201.00
2023-02-12T04:27:38.184Z,102207.40
2023-02-12T04:30:28.418Z,102205.60
2023-02-12T04:33:12.221Z,102205.20
2023-02-12T04:36:00.498Z,102211.20
2023-02-12T04:38:44.168Z,102207.00
2023-02-12T04:41:21.611Z,102204.00
2023-02-12T04:43:58.625Z,102197.40
2023-02-12T04:46:36.084Z,102203.60
2023-02-12T04:49:18.928Z,102202.80
2023-02-12T04:51:56.776Z,102203.20
2023-02-12T04:54:34.013Z,102207.20
2023-02-12T04:57:11.964Z,102201.60
2023-02-12T04:59:48.972Z,102192.40
2023-02-12T05:02:26.281Z,102196.00
2023-02-12T05:05:03.501Z,102199.00
2023-02-12T05:07:40.544Z,102205.80
2023-02-12T05:10:21.428Z,102204.40
2023-02-12T05:13:00.087Z,102208.80
2023-02-12T05:15:36.811Z,102203.00
2023-02-12T05:18:15.480Z,102202.40
2023-02-12T05:21:00.470Z,102202.40
2023-02-12T05:23:39.840Z,102200.60
2023-02-12T05:26:22.906Z,102203.20
2023-02-12T05:28:59.524Z,102199.40
2023-02-12T05:31:36.059Z,102195.80
2023-02-12T05:34:15.569Z,102194.00
2023-02-12T05:36:53.048Z,102186.60
2023-02-12T05:39:30.264Z,102181.00
2023-02-12T05:42:07.946Z,102171.60
2023-02-12T05:44:45.808Z,102176.00
2023-02-12T05:47:22.527Z,102188.40
2023-02-12T05:49:59.791Z,102195.80
2023-02-12T05:52:37.474Z,102198.40
2023-02-12T05:55:17.753Z,102207.40
2023-02-12T05:57:55.760Z,102206.40
2023-02-12T06:00:33.919Z,102208.60
2023-02-12T06:03:10.984Z,102210.00
2023-02-12T06:05:53.715Z,102208.20
2023-02-12T06:08:30.312Z,102210.60
2023-02-12T06:11:10.292Z,102217.80
2023-02-12T06:13:47.514Z,102223.40
2023-02-12T06:16:30.998Z,102222.80
2023-02-12T06:19:10.848Z,102226.80
2023-02-12T06:21:47.205Z,102232.80
2023-02-12T06:24:24.457Z,102234.40
2023-02-12T06:27:01.960Z,102242.00
2023-02-12T06:29:38.458Z,102249.00
2023-02-12T06:32:15.667Z,102248.60
2023-02-12T06:34:52.630Z,102254.20
2023-02-12T06:37:30.058Z,102264.40
2023-02-12T06:40:06.890Z,102263.40
2023-02-12T06:42:43.387Z,102272.60
2023-02-12T06:45:20.850Z,102276.80
2023-02-12T06:47:59.113Z,102273.80
2023-02-12T06:50:35.708Z,102276.00
2023-02-12T06:53:13.352Z,102278.60
2023-02-12T06:55:51.329Z,102276.80
2023-02-12T06:58:28.704Z,102270.80
2023-02-12T07:01:13.929Z,102269.20
2023-02-12T07:03:53.505Z,102266.80
2023-02-12T07:06:31.877Z,102272.40
2023-02-12T07:09:09.151Z,102271.00
2023-02-12T07:11:45.990Z,102270.40
2023-02-12T07:14:24.139Z,102271.40
2023-02-12T07:17:04.116Z,102275.20
2023-02-12T07:19:40.968Z,102275.20
2023-02-12T07:22:17.775Z,102282.00
2023-02-12T07:24:54.815Z,102287.80
2023-02-12T07:27:31.875Z,102286.00
2023-02-12T07:30:10.237Z,102289.60
2023-02-12T07:32:47.798Z,102292.20
2023-02-12T07:35:24.981Z,102294.00
2023-02-12T07:38:01.655Z,102295.80
2023-02-12T07:40:38.970Z,102303.60
2023-02-12T07:43:15.724Z,102308.40
2023-02-12T07:45:52.890Z,102307.20
2023-02-12T07:48:29.896Z,102308.00
2023-02-12T07:51:11.505Z,102314.20
2023-02-12T07:53:48.472Z,102318.20
2023-02-12T07:56:29.742Z,102320.00
2023-02-12T07:59:10.146Z,102325.20
2023-02-12T08:01:49.036Z,102324.60
2023-02-12T08:04:28.119Z,102320.40
2023-02-12T08:07:04.735Z,102314.40
2023-02-12T08:09:41.604Z,102321.60
2023-02-12T08:12:18.870Z,102322.40
2023-02-12T08:14:56.890Z,102329.00
2023-02-12T08:17:33.502Z,102341.60
2023-02-12T08:20:14.761Z,102340.20
2023-02-12T08:22:51.996Z,102345.40
2023-02-12T08:25:28.839Z,102351.60
2023-02-12T08:28:05.502Z,102350.20
2023-02-12T08:30:43.596Z,102351.40
2023-02-12T08:33:23.720Z,102359.60
2023-02-12T08:36:11.916Z,102366.20
2023-02-12T08:38:49.703Z,102362.80
2023-02-12T08:41:28.782Z,102360.20
2023-02-12T08:44:08.481Z,102355.40
2023-02-12T08:46:51.943Z,102353.60
2023-02-12T08:49:30.378Z,102348.80
2023-02-12T08:52:07.718Z,102343.40
2023-02-12T08:54:44.601Z,102337.00
2023-02-12T08:57:22.025Z,102333.00
2023-02-12T08:59:59.374Z,102339.20
2023-02-12T09:02:35.761Z,102333.00
2023-02-12T09:05:14.993Z,102328.80
2023-02-12T09:07:52.981Z,102329.80
2023-02-12T09:10:30.383Z,102328.00
2023-02-12T09:13:07.380Z,102331.00
2023-02-12T09:15:47.602Z,102328.00
2023-02-12T09:18:25.171Z,102333.80
2023-02-12T09:21:06.203Z,102334.40
2023-02-12T09:23:42.541Z,102336.00
2023-02-12T09:26:22.962Z,102339.00
2023-02-12T09:29:01.279Z,102333.60
2023-02-12T09:31:38.657Z,102338.40
2023-02-12T09:34:15.443Z,102340.20
2023-02-12T09:36:52.782Z,102334.80
2023-02-12T09:39:30.921Z,102340.00
2023-02-12T09:42:46.440Z,102342.20
2023-02-12T09:45:28.740Z,102341.40
2023-02-12T09:48:25.040Z,102343.80
2023-02-12T09:51:07.580Z,102337.20
2023-02-12T09:53:49.571Z,102338.40
2023-02-12T09:56:30.782Z,102340.20
2023-02-12T09:59:11.037Z,102341.40
2023-02-12T10:01:47.858Z,102348.80
2023-02-12T10:04:31.583Z,102349.80
2023-02-12T10:07:21.216Z,102355.80
2023-02-12T10:10:20.137Z,102354.40
2023-02-12T10:13:07.139Z,102368.20
2023-02-12T10:15:53.095Z,102365.40
2023-02-12T10:19:07.712Z,102366.40
2023-02-12T10:21:59.037Z,102371.20
2023-02-12T10:25:06.321Z,102373.80
2023-02-12T10:27:57.296Z,102372.40
2023-02-12T10:30:49.363Z,102370.80
2023-02-12T10:33:36.457Z,102367.20
2023-02-12T10:36:41.675Z,102360.20
2023-02-12T10:39:26.350Z,102352.80
2023-02-12T10:42:13.059Z,102356.80
2023-02-12T10:44:50.253Z,102359.60
2023-02-12T10:47:29.413Z,102356.20
2023-02-12T10:50:18.260Z,102353.00
2023-02-12T10:53:00.955Z,102359.20
2023-02-12T10:55:39.515Z,102352.20
2023-02-12T10:58:27.303Z,102352.20
2023-02-12T11:01:10.219Z,102349.00
2023-02-12T11:03:47.049Z,102352.80
2023-02-12T11:06:28.092Z,102356.60
2023-02-12T11:09:04.967Z,102357.60
2023-02-12T11:11:47.371Z,102346.40
2023-02-12T11:14:27.565Z,102350.40
2023-02-12T11:17:05.699Z,102353.60
2023-02-12T11:19:44.431Z,102353.60
2023-02-12T11:22:22.237Z,102351.60
2023-02-12T11:25:18.833Z,102348.00
2023-02-12T11:28:09.157Z,102350.40
2023-02-12T11:30:59.542Z,102355.40
2023-02-12T11:33:39.982Z,102352.80
2023-02-12T11:36:29.150Z,102349.60
2023-02-12T11:39:07.918Z,102349.20
2023-02-12T11:41:47.946Z,102354.40
2023-02-12T11:44:30.311Z,102356.40
2023-02-12T11:47:12.463Z,102358.00
2023-02-12T11:49:56.724Z,102358.40
2023-02-12T11:52:38.046Z,102353.40
2023-02-12T11:55:33.078Z,102360.80
2023-02-12T11:58:23.478Z,102364.00
2023-02-12T12:01:14.561Z,102361.60
2023-02-12T12:04:02.218Z,102363.80
2023-02-12T12:06:46.976Z,102358.00
2023-02-12T12:09:32.434Z,102350.00
2023-02-12T12:12:21.751Z,102347.80
2023-02-12T12:15:22.061Z,102344.20
2023-02-12T12:18:20.806Z,102339.20
2023-02-12T12:21:04.980Z,102334.60
2023-02-12T12:23:46.525Z,102333.00
2023-02-12T12:26:31.388Z,102331.20
2023-02-12T12:29:19.767Z,102323.20
2023-02-12T12:32:02.718Z,102323.60
2023-02-12T12:34:40.719Z,102326.00
2023-02-12T12:37:40.741Z,102319.40
2023-02-12T12:40:45.763Z,102314.00
2023-02-12T12:43:39.124Z,102318.80
2023-02-12T12:47:06.748Z,102315.40
2023-02-12T12:50:05.731Z,102319.00
2023-02-12T12:53:04.070Z,102319.00
2023-02-12T12:56:03.908Z,102315.20
2023-02-12T12:59:02.619Z,102317.40
2023-02-12T13:02:12.303Z,102310.00
2023-02-12T13:05:41.509Z,102306.80
2023-02-12T13:08:44.166Z,102304.40
2023-02-12T13:11:37.755Z,102306.80
2023-02-12T13:14:43.944Z,102319.00
2023-02-12T13:17:31.305Z,102324.80
2023-02-12T13:20:22.928Z,102312.60
2023-02-12T13:23:12.427Z,102312.40
2023-02-12T13:26:01.278Z,102314.20
2023-02-12T13:28:43.695Z,102306.20
2023-02-12T13:31:34.249Z,102307.40
2023-02-12T13:34:16.779Z,102313.60
2023-02-12T13:36:55.077Z,102313.80
2023-02-12T13:39:41.881Z,102310.60
2023-02-12T13:42:37.707Z,102311.60
2023-02-12T13:45:32.969Z,102318.00
2023-02-12T13:48:47.395Z,102325.00
2023-02-12T13:51:38.804Z,102318.20
2023-02-12T13:54:39.369Z,102323.40
2023-02-12T13:57:23.248Z,102325.40
2023-02-12T14:00:00.987Z,102333.60
2023-02-12T14:02:54.443Z,102348.20
2023-02-12T14:05:35.278Z,102336.00
2023-02-12T14:08:36.857Z,102341.40
2023-02-12T14:11:18.546Z,102337.80
2023-02-12T14:14:00.258Z,102340.80
2023-02-12T14:16:47.128Z,102349.00
2023-02-12T14:20:09.205Z,102339.60
2023-02-12T14:23:26.700Z,102340.00
2023-02-12T14:26:13.590Z,102335.20
2023-02-12T14:29:00.279Z,102344.20
2023-02-12T14:31:44.729Z,102345.40
2023-02-12T14:34:53.147Z,102346.00
2023-02-12T14:37:45.964Z,102341.80
2023-02-12T14:40:49.259Z,102353.40
2023-02-12T14:43:59.935Z,102359.80
2023-02-12T14:46:55.888Z,102358.20
2023-02-12T14:49:42.703Z,102364.20
2023-02-12T14:52:28.401Z,102370.40
2023-02-12T14:55:22.282Z,102367.20
2023-02-12T14:58:19.586Z,102365.20
2023-02-12T15:01:03.102Z,102369.60
2023-02-12T15:03:53.446Z,102371.40
2023-02-12T15:06:51.480Z,102377.00
2023-02-12T15:09:39.130Z,102383.60
2023-02-12T15:12:26.830Z,102389.00
2023-02-12T15:15:17.161Z,102384.80
2023-02-12T15:18:06.407Z,102381.20
2023-02-12T15:20:51.920Z,102384.00
2023-02-12T15:23:41.457Z,102381.00
2023-02-12T15:26:25.680Z,102378.80
2023-02-12T15:29:02.091Z,102393.20
2023-02-12T15:31:40.713Z,102391.40
2023-02-12T15:34:27.781Z,102400.40
2023-02-12T15:37:06.017Z,102397.00
2023-02-12T15:39:48.860Z,102401.60
2023-02-12T15:42:39.739Z,102400.40
2023-02-12T15:45:33.227Z,102405.20
2023-02-12T15:48:24.141Z,102420.60
2023-02-12T15:51:16.956Z,102414.40
2023-02-12T15:53:55.360Z,102421.20
2023-02-12T15:56:33.956Z,102419.80
2023-02-12T15:59:18.615Z,102421.40
2023-02-12T16:02:04.448Z,102421.00
2023-02-12T16:04:44.438Z,102420.40
2023-02-12T16:07:22.362Z,102430.00
2023-02-12T16:10:01.043Z,102423.40
2023-02-12T16:12:43.811Z,102429.80
2023-02-12T16:15:35.879Z,102435.80
2023-02-12T16:18:28.535Z,102449.20
2023-02-12T16:21:19.223Z,102438.60
2023-02-12T16:23:56.821Z,102439.00
2023-02-12T16:26:34.310Z,102451.60
2023-02-12T16:29:20.051Z,102446.00
2023-02-12T16:32:04.902Z,102447.80
2023-02-12T16:34:45.467Z,102444.60
2023-02-12T16:37:50.719Z,102448.40
2023-02-12T16:41:26.241Z,102452.40
2023-02-12T16:44:32.168Z,102455.40
2023-02-12T16:47:09.381Z,102472.60
2023-02-12T16:49:59.198Z,102472.00
2023-02-12T16:52:44.191Z,102469.40
2023-02-12T16:55:23.204Z,102469.00
2023-02-12T16:57:59.932Z,102476.40
2023-02-12T17:00:37.354Z,102487.20
2023-02-12T17:03:16.325Z,102494.60
2023-02-12T17:05:52.745Z,102491.00
2023-02-12T17:08:29.432Z,102493.80
2023-02-12T17:11:08.778Z,102496.60
2023-02-12T17:13:46.340Z,102505.40
2023-02-12T17:16:30.742Z,102508.00
2023-02-12T17:19:08.519Z,102507.00
2023-02-12T17:21:45.962Z,102512.80
2023-02-12T17:24:28.282Z,102517.80
2023-02-12T17:27:04.841Z,102517.20
2023-02-12T17:29:41.665Z,102515.00
2023-02-12T17:32:18.771Z,102519.60
2023-02-12T17:34:56.908Z,102521.20
2023-02-12T17:37:33.282Z,102527.80
2023-02-12T17:40:14.029Z,102527.40
2023-02-12T17:42:50.632Z,102531.40
2023-02-12T17:45:27.140Z,102537.40
2023-02-12T17:48:03.498Z,102535.80
2023-02-12T17:50:40.963Z,102544.80
2023-02-12T17:53:17.901Z,102540.40
2023-02-12T17:55:54.632Z,102551.00
2023-02-12T17:58:32.427Z,102549.40
2023-02-12T18:01:17.502Z,102559.60
2023-02-12T18:03:55.909Z,102561.00
2023-02-12T18:06:35.939Z,102562.40
2023-02-12T18:09:13.569Z,102559.40
2023-02-12T18:11:50.336Z,102556.20
2023-02-12T18:14:26.947Z,102560.60
2023-02-12T18:17:03.404Z,102565.00
2023-02-12T18:19:40.877Z,102559.20
2023-02-12T18:22:18.914Z,102564.40
2023-02-12T18:24:57.834Z,102571.00
2023-02-12T18:27:35.095Z,102566.80
2023-02-12T18:30:17.615Z,102568.00
2023-02-12T18:32:54.269Z,102566.00
2023-02-12T18:35:31.410Z,102567.00
2023-02-12T18:38:08.675Z,102570.20
2023-02-12T18:40:47.244Z,102565.60
2023-02-12T18:43:24.649Z,102571.40
2023-02-12T18:46:01.950Z,102575.20
2023-02-12T18:48:39.638Z,102578.00
2023-02-12T18:51:20.490Z,102578.60
2023-02-12T18:54:06.447Z,102575.00
2023-02-12T18:56:48.258Z,102577.60
2023-02-12T18:59:27.254Z,102590.60
2023-02-12T19:02:05.591Z,102591.40
2023-02-12T19:04:41.934Z,102594.60
2023-02-12T19:07:19.082Z,102589.20
2023-02-12T19:09:56.138Z,102592.80
2023-02-12T19:12:32.928Z,102594.00
2023-02-12T19:15:12.357Z,102596.40
2023-02-12T19:17:49.334Z,102596.00
2023-02-12T19:20:26.536Z,102605.80
2023-02-12T19:23:02.793Z,102605.00
2023-02-12T19:25:43.445Z,102610.60
2023-02-12T19:28:20.951Z,102607.60
2023-02-12T19:30:58.883Z,102608.00
2023-02-12T19:33:35.599Z,102613.00
2023-02-12T19:36:17.885Z,102608.20
2023-02-12T19:38:56.682Z,102610.40
2023-02-12T19:41:41.164Z,102610.80
2023-02-12T19:44:21.953Z,102612.80
2023-02-12T19:47:00.034Z,102622.40
2023-02-12T19:49:36.407Z,102624.60
2023-02-12T19:52:14.304Z,102631.00
2023-02-12T19:54:52.184Z,102628.80
2023-02-12T19:57:27.990Z,102631.40
2023-02-12T20:00:05.162Z,102640.00
2023-02-12T20:02:44.005Z,102640.60
2023-02-12T20:05:21.251Z,102648.00
2023-02-12T20:07:58.628Z,102645.80
2023-02-12T20:10:37.569Z,102645.60
2023-02-12T20:13:14.834Z,102644.40
2023-02-12T20:15:52.433Z,102645.20
2023-02-12T20:18:29.634Z,102655.20
2023-02-12T20:21:12.296Z,102653.00
2023-02-12T20:23:49.276Z,102650.60
2023-02-12T20:26:26.877Z,102654.00
2023-02-12T20:29:05.567Z,102655.20
2023-02-12T20:31:43.106Z,102661.40
2023-02-12T20:34:22.394Z,102661.60
2023-02-12T20:36:59.209Z,102661.60
2023-02-12T20:39:35.629Z,102662.00
2023-02-12T20:42:13.606Z,102664.20
2023-02-12T20:44:51.214Z,102672.20
2023-02-12T20:47:29.222Z,102672.80
2023-02-12T20:50:05.646Z,102675.60
2023-02-12T20:52:42.455Z,102677.60
2023-02-12T20:55:19.218Z,102682.40
2023-02-12T20:57:55.896Z,102686.20
2023-02-12T21:00:33.092Z,102682.00
2023-02-12T21:03:10.009Z,102688.20
2023-02-12T21:05:46.988Z,102680.20
2023-02-12T21:08:24.136Z,102683.20
2023-02-12T21:11:09.839Z,102687.60
2023-02-12T21:13:58.523Z,102687.80
2023-02-12T21:16:42.257Z,102691.20
2023-02-12T21:19:19.135Z,102691.40
2023-02-12T21:21:54.632Z,102690.20
2023-02-12T21:24:32.709Z,102691.60
2023-02-12T21:27:09.897Z,102692.60
2023-02-12T21:29:46.754Z,102696.20
2023-02-12T21:32:24.509Z,102696.60
2023-02-12T21:35:00.468Z,102695.80
2023-02-12T21:37:37.497Z,102701.00
